| Date Time MST |
Temp °F |
RH % |
DewPt °F |
Wind mph |
Dir ° |
Gust mph |
Dir ° |
Press in Hg |
Solar W/m^2 |
Prec in |
|---|---|---|---|---|---|---|---|---|---|---|
| 2026-05-03 22:25 | 51.9 | 35.6 | 25.5 | 7.3 | 284 | 8.0 | 284 | 24.755 | 0.0 | 0.00 |
| 2026-05-03 22:20 | 51.7 | 36.1 | 25.7 | 7.1 | 285 | 7.8 | 294 | 24.754 | 0.0 | 0.00 |
| 2026-05-03 22:15 | 51.4 | 36.7 | 25.8 | 6.9 | 300 | 7.5 | 293 | 24.754 | 0.0 | 0.00 |
| 2026-05-03 22:10 | 51.9 | 36.8 | 26.2 | 7.0 | 298 | 7.9 | 299 | 24.756 | 0.0 | 0.00 |
| 2026-05-03 22:05 | 52.0 | 35.6 | 25.6 | 7.6 | 302 | 9.3 | 305 | 24.756 | 0.0 | 0.00 |
| 2026-05-03 22:00 | 52.5 | 34.9 | 25.6 | 7.2 | 298 | 8.2 | 302 | 24.756 | 0.0 | 0.00 |
| 2026-05-03 21:55 | 53.1 | 34.3 | 25.7 | 7.1 | 308 | 8.4 | 306 | 24.756 | 0.0 | 0.00 |
| 2026-05-03 21:50 | 53.6 | 33.0 | 25.2 | 6.8 | 317 | 8.2 | 306 | 24.756 | 0.0 | 0.00 |
| 2026-05-03 21:45 | 54.0 | 32.9 | 25.5 | 7.2 | 303 | 8.2 | 327 | 24.755 | 0.0 | 0.00 |
| 2026-05-03 21:40 | 54.2 | 33.1 | 25.8 | 6.8 | 320 | 7.8 | 335 | 24.756 | 0.0 | 0.00 |
| 2026-05-03 21:35 | 54.8 | 32.4 | 25.7 | 8.1 | 330 | 9.8 | 323 | 24.756 | 0.0 | 0.00 |
| 2026-05-03 21:30 | 55.7 | 32.0 | 26.3 | 8.1 | 325 | 8.8 | 325 | 24.755 | 0.0 | 0.00 |
| 2026-05-03 21:25 | 56.1 | 30.7 | 25.6 | 8.2 | 324 | 10.4 | 317 | 24.756 | 0.0 | 0.00 |
| 2026-05-03 21:20 | 56.0 | 30.7 | 25.6 | 8.0 | 313 | 9.3 | 308 | 24.757 | 0.0 | 0.00 |
| 2026-05-03 21:15 | 56.9 | 30.1 | 25.9 | 9.6 | 300 | 10.7 | 313 | 24.759 | 0.0 | 0.00 |
| 2026-05-03 21:10 | 57.7 | 28.7 | 25.5 | 9.5 | 318 | 10.3 | 310 | 24.760 | 0.0 | 0.00 |
| 2026-05-03 21:05 | 57.9 | 27.9 | 25.0 | 8.6 | 307 | 11.4 | 304 | 24.758 | 0.0 | 0.00 |
| 2026-05-03 21:00 | 58.0 | 27.9 | 24.9 | 9.6 | 298 | 11.4 | 306 | 24.755 | 0.0 | 0.00 |
| 2026-05-03 20:55 | 58.6 | 27.2 | 25.0 | 9.9 | 308 | 11.2 | 308 | 24.755 | 0.0 | 0.00 |
| 2026-05-03 20:50 | 59.6 | 25.4 | 24.2 | 9.3 | 306 | 10.4 | 306 | 24.754 | 0.0 | 0.00 |
| 2026-05-03 20:45 | 60.5 | 24.9 | 24.4 | 9.3 | 312 | 12.3 | 331 | 24.754 | 0.0 | 0.00 |
| 2026-05-03 20:40 | 60.6 | 23.5 | 23.1 | 10.4 | 326 | 11.9 | 327 | 24.754 | 0.0 | 0.00 |
| 2026-05-03 20:35 | 60.4 | 23.1 | 22.5 | 12.3 | 323 | 14.6 | 338 | 24.753 | 0.0 | 0.00 |
| 2026-05-03 20:30 | 60.9 | 22.1 | 21.9 | 10.4 | 312 | 11.7 | 312 | 24.747 | 0.0 | 0.00 |
| 2026-05-03 20:25 | 60.9 | 20.8 | 20.4 | 9.7 | 314 | 12.5 | 327 | 24.746 | 0.1 | 0.00 |
| 2026-05-03 20:20 | 60.9 | 20.8 | 20.4 | 8.4 | 322 | 11.1 | 330 | 24.745 | 0.1 | 0.00 |
| 2026-05-03 20:15 | 61.6 | 20.7 | 20.9 | 7.7 | 331 | 9.0 | 332 | 24.742 | 0.1 | 0.00 |
| 2026-05-03 20:10 | 62.1 | 19.8 | 20.3 | 4.8 | 333 | 6.4 | 325 | 24.737 | 0.1 | 0.00 |
| 2026-05-03 20:05 | 62.4 | 18.9 | 19.6 | 5.1 | 9 | 6.4 | 358 | 24.733 | 0.1 | 0.00 |
| 2026-05-03 20:00 | 62.8 | 18.3 | 19.0 | 6.5 | 356 | 8.5 | 353 | 24.731 | 0.2 | 0.00 |
| Date Time MST |
Temp °C |
RH % |
DewPt °C |
Wind m/s |
Dir ° |
Gust m/s |
Dir ° |
Press hPa |
Solar W/m^2 |
Prec mm |
|---|---|---|---|---|---|---|---|---|---|---|
| 2026-05-03 22:25 | 11.0 | 35.6 | -3.6 | 3.3 | 284 | 3.6 | 284 | 838.29 | 0.0 | 0.00 |
| 2026-05-03 22:20 | 10.9 | 36.1 | -3.5 | 3.2 | 285 | 3.5 | 294 | 838.27 | 0.0 | 0.00 |
| 2026-05-03 22:15 | 10.8 | 36.7 | -3.5 | 3.1 | 300 | 3.3 | 293 | 838.26 | 0.0 | 0.00 |
| 2026-05-03 22:10 | 11.0 | 36.8 | -3.2 | 3.1 | 298 | 3.5 | 299 | 838.34 | 0.0 | 0.00 |
| 2026-05-03 22:05 | 11.1 | 35.6 | -3.6 | 3.4 | 302 | 4.1 | 305 | 838.33 | 0.0 | 0.00 |
| 2026-05-03 22:00 | 11.4 | 34.9 | -3.6 | 3.2 | 298 | 3.7 | 302 | 838.33 | 0.0 | 0.00 |
| 2026-05-03 21:55 | 11.7 | 34.3 | -3.5 | 3.2 | 308 | 3.7 | 306 | 838.33 | 0.0 | 0.00 |
| 2026-05-03 21:50 | 12.0 | 33.0 | -3.8 | 3.0 | 317 | 3.7 | 306 | 838.32 | 0.0 | 0.00 |
| 2026-05-03 21:45 | 12.2 | 32.9 | -3.6 | 3.2 | 303 | 3.7 | 327 | 838.32 | 0.0 | 0.00 |
| 2026-05-03 21:40 | 12.4 | 33.1 | -3.4 | 3.1 | 320 | 3.5 | 335 | 838.33 | 0.0 | 0.00 |
| 2026-05-03 21:35 | 12.6 | 32.4 | -3.5 | 3.6 | 330 | 4.4 | 323 | 838.35 | 0.0 | 0.00 |
| 2026-05-03 21:30 | 13.2 | 32.0 | -3.2 | 3.6 | 325 | 3.9 | 325 | 838.31 | 0.0 | 0.00 |
| 2026-05-03 21:25 | 13.4 | 30.7 | -3.5 | 3.7 | 324 | 4.7 | 317 | 838.34 | 0.0 | 0.00 |
| 2026-05-03 21:20 | 13.3 | 30.7 | -3.6 | 3.6 | 313 | 4.2 | 308 | 838.35 | 0.0 | 0.00 |
| 2026-05-03 21:15 | 13.8 | 30.1 | -3.4 | 4.3 | 300 | 4.8 | 313 | 838.44 | 0.0 | 0.00 |
| 2026-05-03 21:10 | 14.3 | 28.7 | -3.6 | 4.3 | 318 | 4.6 | 310 | 838.48 | 0.0 | 0.00 |
| 2026-05-03 21:05 | 14.4 | 27.9 | -3.9 | 3.8 | 307 | 5.1 | 304 | 838.39 | 0.0 | 0.00 |
| 2026-05-03 21:00 | 14.4 | 27.9 | -3.9 | 4.3 | 298 | 5.1 | 306 | 838.31 | 0.0 | 0.00 |
| 2026-05-03 20:55 | 14.8 | 27.2 | -3.9 | 4.4 | 308 | 5.0 | 308 | 838.29 | 0.0 | 0.00 |
| 2026-05-03 20:50 | 15.4 | 25.4 | -4.4 | 4.2 | 306 | 4.7 | 306 | 838.28 | 0.0 | 0.00 |
| 2026-05-03 20:45 | 15.8 | 24.9 | -4.2 | 4.2 | 312 | 5.5 | 331 | 838.28 | 0.0 | 0.00 |
| 2026-05-03 20:40 | 15.9 | 23.5 | -4.9 | 4.6 | 326 | 5.3 | 327 | 838.27 | 0.0 | 0.00 |
| 2026-05-03 20:35 | 15.8 | 23.1 | -5.3 | 5.5 | 323 | 6.5 | 338 | 838.23 | 0.0 | 0.00 |
| 2026-05-03 20:30 | 16.1 | 22.1 | -5.6 | 4.7 | 312 | 5.2 | 312 | 838.04 | 0.0 | 0.00 |
| 2026-05-03 20:25 | 16.1 | 20.8 | -6.4 | 4.4 | 314 | 5.6 | 327 | 838.00 | 0.1 | 0.00 |
| 2026-05-03 20:20 | 16.1 | 20.8 | -6.4 | 3.7 | 322 | 5.0 | 330 | 837.96 | 0.1 | 0.00 |
| 2026-05-03 20:15 | 16.4 | 20.7 | -6.2 | 3.4 | 331 | 4.0 | 332 | 837.85 | 0.1 | 0.00 |
| 2026-05-03 20:10 | 16.7 | 19.8 | -6.5 | 2.1 | 333 | 2.9 | 325 | 837.69 | 0.1 | 0.00 |
| 2026-05-03 20:05 | 16.9 | 18.9 | -6.9 | 2.3 | 9 | 2.9 | 358 | 837.56 | 0.1 | 0.00 |
| 2026-05-03 20:00 | 17.1 | 18.3 | -7.2 | 2.9 | 356 | 3.8 | 353 | 837.47 | 0.2 | 0.00 |